sensor_id;sensor_type;location;lat;lon;timestamp;pressure;altitude;pressure_sealevel;temperature;humidity
43480;BME280;29067;35.492;-97.520;2023-01-05T00:01:33;97446.89;;;8.50;28.15
43480;BME280;29067;35.492;-97.520;2023-01-05T00:04:02;97454.39;;;6.80;29.93
43480;BME280;29067;35.492;-97.520;2023-01-05T00:06:32;97450.07;;;7.44;29.14
43480;BME280;29067;35.492;-97.520;2023-01-05T00:09:16;97452.37;;;7.50;29.09
43480;BME280;29067;35.492;-97.520;2023-01-05T00:11:44;97457.06;;;7.12;29.44
43480;BME280;29067;35.492;-97.520;2023-01-05T00:14:20;97460.52;;;7.16;29.30
43480;BME280;29067;35.492;-97.520;2023-01-05T00:16:58;97458.10;;;7.51;29.13
43480;BME280;29067;35.492;-97.520;2023-01-05T00:19:32;97464.16;;;6.62;29.95
43480;BME280;29067;35.492;-97.520;2023-01-05T00:22:00;97469.79;;;6.95;29.89
43480;BME280;29067;35.492;-97.520;2023-01-05T00:24:28;97469.66;;;8.07;29.37
43480;BME280;29067;35.492;-97.520;2023-01-05T00:26:57;97479.02;;;6.81;30.13
43480;BME280;29067;35.492;-97.520;2023-01-05T00:29:30;97479.66;;;6.63;30.38
43480;BME280;29067;35.492;-97.520;2023-01-05T00:31:58;97472.21;;;7.86;29.39
43480;BME280;29067;35.492;-97.520;2023-01-05T00:34:27;97473.84;;;6.92;29.74
43480;BME280;29067;35.492;-97.520;2023-01-05T00:36:55;97473.33;;;8.01;29.39
43480;BME280;29067;35.492;-97.520;2023-01-05T00:39:23;97480.74;;;7.49;29.84
43480;BME280;29067;35.492;-97.520;2023-01-05T00:41:51;97485.56;;;7.90;29.90
43480;BME280;29067;35.492;-97.520;2023-01-05T00:44:19;97488.52;;;7.09;30.64
43480;BME280;29067;35.492;-97.520;2023-01-05T00:46:47;97492.14;;;7.01;30.66
43480;BME280;29067;35.492;-97.520;2023-01-05T00:49:15;97493.38;;;6.99;30.78
43480;BME280;29067;35.492;-97.520;2023-01-05T00:51:43;97496.22;;;6.96;30.98
43480;BME280;29067;35.492;-97.520;2023-01-05T00:54:11;97498.33;;;7.36;30.66
43480;BME280;29067;35.492;-97.520;2023-01-05T00:56:38;97505.48;;;6.79;31.09
43480;BME280;29067;35.492;-97.520;2023-01-05T00:59:06;97508.31;;;6.51;31.41
43480;BME280;29067;35.492;-97.520;2023-01-05T01:01:34;97508.37;;;6.59;31.43
43480;BME280;29067;35.492;-97.520;2023-01-05T01:04:03;97509.68;;;6.52;31.99
43480;BME280;29067;35.492;-97.520;2023-01-05T01:06:39;97511.48;;;6.16;32.46
43480;BME280;29067;35.492;-97.520;2023-01-05T01:09:12;97514.71;;;6.66;31.78
43480;BME280;29067;35.492;-97.520;2023-01-05T01:11:41;97519.37;;;6.99;31.58
43480;BME280;29067;35.492;-97.520;2023-01-05T01:14:11;97526.67;;;6.20;32.05
43480;BME280;29067;35.492;-97.520;2023-01-05T01:16:45;97534.91;;;6.07;32.37
43480;BME280;29067;35.492;-97.520;2023-01-05T01:19:20;97541.04;;;6.12;32.29
43480;BME280;29067;35.492;-97.520;2023-01-05T01:21:49;97545.31;;;5.94;32.40
43480;BME280;29067;35.492;-97.520;2023-01-05T01:24:20;97549.28;;;6.44;32.13
43480;BME280;29067;35.492;-97.520;2023-01-05T01:26:55;97547.18;;;6.12;32.37
43480;BME280;29067;35.492;-97.520;2023-01-05T01:29:23;97550.65;;;5.96;32.56
43480;BME280;29067;35.492;-97.520;2023-01-05T01:31:52;97550.61;;;7.06;32.27
43480;BME280;29067;35.492;-97.520;2023-01-05T01:34:20;97561.19;;;4.60;33.97
43480;BME280;29067;35.492;-97.520;2023-01-05T01:36:48;97561.73;;;6.12;33.32
43480;BME280;29067;35.492;-97.520;2023-01-05T01:39:16;97560.38;;;6.09;32.66
43480;BME280;29067;35.492;-97.520;2023-01-05T01:41:44;97560.16;;;6.14;32.58
43480;BME280;29067;35.492;-97.520;2023-01-05T01:45:20;97563.82;;;5.87;32.70
43480;BME280;29067;35.492;-97.520;2023-01-05T01:47:56;97573.22;;;5.15;33.45
43480;BME280;29067;35.492;-97.520;2023-01-05T01:50:32;97578.23;;;5.68;33.79
43480;BME280;29067;35.492;-97.520;2023-01-05T01:53:03;97585.90;;;5.00;34.27
43480;BME280;29067;35.492;-97.520;2023-01-05T01:55:34;97587.37;;;4.68;34.48
43480;BME280;29067;35.492;-97.520;2023-01-05T01:58:06;97589.29;;;5.05;34.10
43480;BME280;29067;35.492;-97.520;2023-01-05T02:00:36;97593.47;;;4.78;34.76
43480;BME280;29067;35.492;-97.520;2023-01-05T02:03:05;97593.43;;;5.47;34.16
43480;BME280;29067;35.492;-97.520;2023-01-05T02:05:34;97595.93;;;5.68;33.94
43480;BME280;29067;35.492;-97.520;2023-01-05T02:08:03;97597.11;;;4.58;35.16
43480;BME280;29067;35.492;-97.520;2023-01-05T02:10:41;97599.90;;;5.22;34.57
43480;BME280;29067;35.492;-97.520;2023-01-05T02:13:24;97605.96;;;4.98;34.76
43480;BME280;29067;35.492;-97.520;2023-01-05T02:16:01;97607.94;;;3.84;35.95
43480;BME280;29067;35.492;-97.520;2023-01-05T02:18:45;97611.48;;;4.07;35.76
43480;BME280;29067;35.492;-97.520;2023-01-05T02:21:23;97616.44;;;5.19;35.20
43480;BME280;29067;35.492;-97.520;2023-01-05T02:26:38;97621.92;;;4.04;37.03
43480;BME280;29067;35.492;-97.520;2023-01-05T02:29:36;97625.73;;;4.62;35.98
43480;BME280;29067;35.492;-97.520;2023-01-05T02:32:14;97624.71;;;4.17;36.38
43480;BME280;29067;35.492;-97.520;2023-01-05T02:34:55;97629.28;;;4.29;36.20
43480;BME280;29067;35.492;-97.520;2023-01-05T02:37:31;97635.36;;;4.51;36.03
43480;BME280;29067;35.492;-97.520;2023-01-05T02:40:07;97635.98;;;4.32;36.23
43480;BME280;29067;35.492;-97.520;2023-01-05T02:42:38;97635.83;;;5.04;35.53
43480;BME280;29067;35.492;-97.520;2023-01-05T02:45:08;97640.56;;;4.58;36.19
43480;BME280;29067;35.492;-97.520;2023-01-05T02:47:39;97646.71;;;5.51;34.79
43480;BME280;29067;35.492;-97.520;2023-01-05T02:50:14;97654.07;;;3.72;36.10
43480;BME280;29067;35.492;-97.520;2023-01-05T02:52:49;97653.06;;;3.88;36.30
43480;BME280;29067;35.492;-97.520;2023-01-05T02:55:21;97658.81;;;4.05;36.39
43480;BME280;29067;35.492;-97.520;2023-01-05T02:57:55;97661.97;;;4.25;36.46
43480;BME280;29067;35.492;-97.520;2023-01-05T03:00:28;97660.95;;;4.67;35.95
43480;BME280;29067;35.492;-97.520;2023-01-05T03:03:03;97661.09;;;5.16;35.02
43480;BME280;29067;35.492;-97.520;2023-01-05T03:05:37;97664.55;;;4.45;35.55
43480;BME280;29067;35.492;-97.520;2023-01-05T03:08:08;97668.67;;;4.54;35.48
43480;BME280;29067;35.492;-97.520;2023-01-05T03:10:46;97665.94;;;4.99;35.05
43480;BME280;29067;35.492;-97.520;2023-01-05T03:13:16;97663.02;;;5.67;34.74
43480;BME280;29067;35.492;-97.520;2023-01-05T03:15:45;97667.21;;;5.04;34.78
43480;BME280;29067;35.492;-97.520;2023-01-05T03:18:16;97671.32;;;4.70;34.66
43480;BME280;29067;35.492;-97.520;2023-01-05T03:20:48;97675.10;;;4.98;34.50
43480;BME280;29067;35.492;-97.520;2023-01-05T03:23:18;97680.88;;;3.68;35.14
43480;BME280;29067;35.492;-97.520;2023-01-05T03:25:49;97684.57;;;4.46;34.42
43480;BME280;29067;35.492;-97.520;2023-01-05T03:28:22;97690.10;;;4.14;34.70
43480;BME280;29067;35.492;-97.520;2023-01-05T03:30:56;97695.32;;;3.44;34.35
43480;BME280;29067;35.492;-97.520;2023-01-05T03:33:32;97700.50;;;2.75;35.35
43480;BME280;29067;35.492;-97.520;2023-01-05T03:36:03;97703.26;;;2.87;35.81
43480;BME280;29067;35.492;-97.520;2023-01-05T03:38:37;97700.49;;;3.79;34.10
43480;BME280;29067;35.492;-97.520;2023-01-05T03:41:09;97706.56;;;3.34;34.03
43480;BME280;29067;35.492;-97.520;2023-01-05T03:43:39;97707.22;;;4.29;33.96
43480;BME280;29067;35.492;-97.520;2023-01-05T03:46:11;97714.49;;;3.61;33.70
43480;BME280;29067;35.492;-97.520;2023-01-05T03:48:41;97718.75;;;3.75;34.00
43480;BME280;29067;35.492;-97.520;2023-01-05T03:51:10;97718.02;;;4.02;33.28
43480;BME280;29067;35.492;-97.520;2023-01-05T03:53:37;97722.39;;;2.87;34.49
43480;BME280;29067;35.492;-97.520;2023-01-05T03:56:06;97725.13;;;3.31;33.48
43480;BME280;29067;35.492;-97.520;2023-01-05T03:58:34;97727.57;;;3.71;33.07
43480;BME280;29067;35.492;-97.520;2023-01-05T04:01:03;97733.32;;;2.53;34.57
43480;BME280;29067;35.492;-97.520;2023-01-05T04:03:31;97736.25;;;2.74;34.43
43480;BME280;29067;35.492;-97.520;2023-01-05T04:06:00;97738.79;;;3.31;33.84
43480;BME280;29067;35.492;-97.520;2023-01-05T04:08:28;97739.33;;;2.59;33.92
43480;BME280;29067;35.492;-97.520;2023-01-05T04:10:56;97744.72;;;2.52;34.64
43480;BME280;29067;35.492;-97.520;2023-01-05T04:13:24;97749.78;;;0.64;35.45
43480;BME280;29067;35.492;-97.520;2023-01-05T04:15:52;97748.82;;;3.11;34.01
43480;BME280;29067;35.492;-97.520;2023-01-05T04:18:20;97753.32;;;0.42;35.98
43480;BME280;29067;35.492;-97.520;2023-01-05T04:20:48;97758.33;;;0.29;36.57
43480;BME280;29067;35.492;-97.520;2023-01-05T04:23:16;97756.06;;;1.01;36.00
43480;BME280;29067;35.492;-97.520;2023-01-05T04:25:46;97760.49;;;0.26;37.40
43480;BME280;29067;35.492;-97.520;2023-01-05T04:28:14;97769.28;;;0.38;37.51
43480;BME280;29067;35.492;-97.520;2023-01-05T04:30:43;97771.69;;;0.79;37.05
43480;BME280;29067;35.492;-97.520;2023-01-05T04:33:11;97774.68;;;-0.40;38.87
43480;BME280;29067;35.492;-97.520;2023-01-05T04:35:39;97769.70;;;0.92;37.59
43480;BME280;29067;35.492;-97.520;2023-01-05T04:38:07;97769.91;;;0.66;37.77
43480;BME280;29067;35.492;-97.520;2023-01-05T04:40:35;97771.87;;;1.81;36.62
43480;BME280;29067;35.492;-97.520;2023-01-05T04:43:03;97770.79;;;0.52;37.73
43480;BME280;29067;35.492;-97.520;2023-01-05T04:45:32;97775.31;;;0.93;36.59
43480;BME280;29067;35.492;-97.520;2023-01-05T04:48:01;97773.38;;;1.14;36.23
43480;BME280;29067;35.492;-97.520;2023-01-05T04:50:29;97773.27;;;0.94;36.29
43480;BME280;29067;35.492;-97.520;2023-01-05T04:52:57;97779.80;;;1.68;35.62
43480;BME280;29067;35.492;-97.520;2023-01-05T04:55:25;97783.44;;;0.52;37.29
43480;BME280;29067;35.492;-97.520;2023-01-05T04:57:53;97786.66;;;2.03;35.70
43480;BME280;29067;35.492;-97.520;2023-01-05T05:00:21;97789.76;;;0.63;37.40
43480;BME280;29067;35.492;-97.520;2023-01-05T05:02:49;97793.66;;;1.63;37.23
43480;BME280;29067;35.492;-97.520;2023-01-05T05:05:17;97794.01;;;2.10;36.21
43480;BME280;29067;35.492;-97.520;2023-01-05T05:07:45;97798.70;;;3.11;35.23
43480;BME280;29067;35.492;-97.520;2023-01-05T05:10:14;97800.84;;;1.86;36.02
43480;BME280;29067;35.492;-97.520;2023-01-05T05:12:42;97801.63;;;3.04;34.99
43480;BME280;29067;35.492;-97.520;2023-01-05T05:15:11;97804.09;;;1.92;35.22
43480;BME280;29067;35.492;-97.520;2023-01-05T05:17:39;97807.92;;;1.70;35.70
43480;BME280;29067;35.492;-97.520;2023-01-05T05:20:08;97802.69;;;0.90;35.67
43480;BME280;29067;35.492;-97.520;2023-01-05T05:22:36;97807.37;;;1.69;35.28
43480;BME280;29067;35.492;-97.520;2023-01-05T05:25:04;97805.99;;;3.42;34.04
43480;BME280;29067;35.492;-97.520;2023-01-05T05:27:32;97814.52;;;2.05;34.34
43480;BME280;29067;35.492;-97.520;2023-01-05T05:30:00;97813.25;;;2.37;34.75
43480;BME280;29067;35.492;-97.520;2023-01-05T05:32:29;97815.00;;;2.91;33.81
43480;BME280;29067;35.492;-97.520;2023-01-05T05:34:57;97819.06;;;1.99;34.68
43480;BME280;29067;35.492;-97.520;2023-01-05T05:37:25;97827.93;;;1.15;35.41
43480;BME280;29067;35.492;-97.520;2023-01-05T05:39:53;97833.18;;;0.03;36.15
43480;BME280;29067;35.492;-97.520;2023-01-05T05:42:21;97828.68;;;1.80;34.63
43480;BME280;29067;35.492;-97.520;2023-01-05T05:44:49;97837.12;;;0.21;36.09
43480;BME280;29067;35.492;-97.520;2023-01-05T05:47:17;97837.98;;;1.77;35.45
43480;BME280;29067;35.492;-97.520;2023-01-05T05:49:45;97845.92;;;-0.14;36.32
43480;BME280;29067;35.492;-97.520;2023-01-05T05:52:13;97850.64;;;0.30;36.25
43480;BME280;29067;35.492;-97.520;2023-01-05T05:54:41;97847.82;;;0.19;36.06
43480;BME280;29067;35.492;-97.520;2023-01-05T05:57:09;97846.66;;;1.73;35.53
43480;BME280;29067;35.492;-97.520;2023-01-05T05:59:37;97850.84;;;0.59;36.86
43480;BME280;29067;35.492;-97.520;2023-01-05T06:02:05;97856.72;;;-0.19;37.15
43480;BME280;29067;35.492;-97.520;2023-01-05T06:04:33;97860.68;;;0.45;37.39
43480;BME280;29067;35.492;-97.520;2023-01-05T06:07:02;97852.57;;;1.00;36.31
43480;BME280;29067;35.492;-97.520;2023-01-05T06:09:30;97852.47;;;0.67;36.89
43480;BME280;29067;35.492;-97.520;2023-01-05T06:11:58;97851.41;;;1.19;36.63
43480;BME280;29067;35.492;-97.520;2023-01-05T06:14:26;97851.07;;;-0.32;37.84
43480;BME280;29067;35.492;-97.520;2023-01-05T06:16:54;97842.52;;;0.19;37.77
43480;BME280;29067;35.492;-97.520;2023-01-05T06:19:22;97847.03;;;-0.03;38.98
43480;BME280;29067;35.492;-97.520;2023-01-05T06:21:50;97849.59;;;-0.13;38.42
43480;BME280;29067;35.492;-97.520;2023-01-05T06:24:18;97849.65;;;0.97;37.94
43480;BME280;29067;35.492;-97.520;2023-01-05T06:26:46;97848.97;;;0.73;37.80
43480;BME280;29067;35.492;-97.520;2023-01-05T06:29:14;97847.85;;;-0.04;39.18
43480;BME280;29067;35.492;-97.520;2023-01-05T06:31:42;97845.76;;;-0.05;38.81
43480;BME280;29067;35.492;-97.520;2023-01-05T06:34:10;97850.18;;;0.42;38.90
43480;BME280;29067;35.492;-97.520;2023-01-05T06:36:38;97851.28;;;-0.83;39.56
43480;BME280;29067;35.492;-97.520;2023-01-05T06:39:06;97845.02;;;1.25;37.84
43480;BME280;29067;35.492;-97.520;2023-01-05T06:41:34;97837.88;;;2.07;36.72
43480;BME280;29067;35.492;-97.520;2023-01-05T06:44:02;97840.43;;;-0.11;38.68
43480;BME280;29067;35.492;-97.520;2023-01-05T06:46:30;97844.98;;;-0.11;38.81
43480;BME280;29067;35.492;-97.520;2023-01-05T06:48:58;97840.90;;;0.47;38.37
43480;BME280;29067;35.492;-97.520;2023-01-05T06:51:26;97835.35;;;0.16;38.32
43480;BME280;29067;35.492;-97.520;2023-01-05T06:53:54;97830.03;;;1.41;37.08
43480;BME280;29067;35.492;-97.520;2023-01-05T06:56:22;97834.58;;;1.18;37.37
43480;BME280;29067;35.492;-97.520;2023-01-05T06:58:50;97836.33;;;0.29;37.15
43480;BME280;29067;35.492;-97.520;2023-01-05T07:01:18;97836.18;;;1.77;37.21
43480;BME280;29067;35.492;-97.520;2023-01-05T07:03:46;97831.90;;;2.43;35.98
43480;BME280;29067;35.492;-97.520;2023-01-05T07:06:15;97838.16;;;1.27;37.03
43480;BME280;29067;35.492;-97.520;2023-01-05T07:08:43;97836.65;;;1.71;36.92
43480;BME280;29067;35.492;-97.520;2023-01-05T07:11:12;97832.38;;;1.71;35.95
43480;BME280;29067;35.492;-97.520;2023-01-05T07:13:40;97837.31;;;1.02;36.54
43480;BME280;29067;35.492;-97.520;2023-01-05T07:16:09;97839.89;;;1.73;36.40
43480;BME280;29067;35.492;-97.520;2023-01-05T07:18:37;97842.71;;;1.43;36.06
43480;BME280;29067;35.492;-97.520;2023-01-05T07:21:05;97846.26;;;1.77;35.97
43480;BME280;29067;35.492;-97.520;2023-01-05T07:23:33;97853.30;;;1.36;36.23
43480;BME280;29067;35.492;-97.520;2023-01-05T07:26:01;97862.08;;;-1.53;39.52
43480;BME280;29067;35.492;-97.520;2023-01-05T07:28:29;97856.89;;;0.70;37.34
43480;BME280;29067;35.492;-97.520;2023-01-05T07:30:57;97854.36;;;1.50;36.65
43480;BME280;29067;35.492;-97.520;2023-01-05T07:33:25;97860.40;;;-0.25;38.26
43480;BME280;29067;35.492;-97.520;2023-01-05T07:35:53;97844.68;;;1.74;37.20
43480;BME280;29067;35.492;-97.520;2023-01-05T07:38:21;97850.52;;;0.10;38.16
43480;BME280;29067;35.492;-97.520;2023-01-05T07:40:49;97852.75;;;-0.36;38.59
43480;BME280;29067;35.492;-97.520;2023-01-05T07:43:17;97851.70;;;0.62;38.51
43480;BME280;29067;35.492;-97.520;2023-01-05T07:45:45;97856.66;;;-0.22;38.68
43480;BME280;29067;35.492;-97.520;2023-01-05T07:48:13;97856.31;;;0.50;37.73
43480;BME280;29067;35.492;-97.520;2023-01-05T07:50:41;97867.29;;;0.03;38.25
43480;BME280;29067;35.492;-97.520;2023-01-05T07:53:09;97869.78;;;0.22;38.00
43480;BME280;29067;35.492;-97.520;2023-01-05T07:55:37;97866.49;;;0.72;37.30
43480;BME280;29067;35.492;-97.520;2023-01-05T07:58:10;97874.72;;;-0.13;38.27
43480;BME280;29067;35.492;-97.520;2023-01-05T08:00:39;97877.38;;;0.49;38.54
43480;BME280;29067;35.492;-97.520;2023-01-05T08:03:07;97875.96;;;-0.12;38.40
43480;BME280;29067;35.492;-97.520;2023-01-05T08:05:35;97878.04;;;0.79;37.95
43480;BME280;29067;35.492;-97.520;2023-01-05T08:08:04;97887.51;;;0.43;38.10
43480;BME280;29067;35.492;-97.520;2023-01-05T08:10:33;97896.65;;;-0.64;39.02
43480;BME280;29067;35.492;-97.520;2023-01-05T08:13:02;97892.02;;;-0.56;38.59
43480;BME280;29067;35.492;-97.520;2023-01-05T08:15:30;97904.61;;;-0.81;38.94
43480;BME280;29067;35.492;-97.520;2023-01-05T08:17:58;97909.31;;;-1.08;39.46
43480;BME280;29067;35.492;-97.520;2023-01-05T08:20:26;97909.94;;;0.26;38.70
43480;BME280;29067;35.492;-97.520;2023-01-05T08:22:55;97908.63;;;-1.12;39.49
43480;BME280;29067;35.492;-97.520;2023-01-05T08:25:23;97911.92;;;-1.39;39.96
43480;BME280;29067;35.492;-97.520;2023-01-05T08:27:51;97907.90;;;0.08;38.92
43480;BME280;29067;35.492;-97.520;2023-01-05T08:30:19;97908.38;;;-0.53;38.97
43480;BME280;29067;35.492;-97.520;2023-01-05T08:32:47;97904.64;;;-0.63;39.05
43480;BME280;29067;35.492;-97.520;2023-01-05T08:35:15;97906.49;;;-0.54;38.91
43480;BME280;29067;35.492;-97.520;2023-01-05T08:37:44;97902.10;;;0.47;37.56
43480;BME280;29067;35.492;-97.520;2023-01-05T08:40:12;97905.08;;;0.15;37.89
43480;BME280;29067;35.492;-97.520;2023-01-05T08:42:40;97908.64;;;0.68;37.24
43480;BME280;29067;35.492;-97.520;2023-01-05T08:45:09;97917.20;;;-0.08;38.33
43480;BME280;29067;35.492;-97.520;2023-01-05T08:47:37;97916.72;;;-0.00;38.51
43480;BME280;29067;35.492;-97.520;2023-01-05T08:50:07;97919.44;;;-0.10;38.87
43480;BME280;29067;35.492;-97.520;2023-01-05T08:52:36;97931.53;;;-1.18;39.46
43480;BME280;29067;35.492;-97.520;2023-01-05T08:55:05;97933.23;;;-1.26;39.74
43480;BME280;29067;35.492;-97.520;2023-01-05T08:57:33;97935.39;;;-1.54;40.22
43480;BME280;29067;35.492;-97.520;2023-01-05T09:00:02;97942.68;;;-0.60;39.65
43480;BME280;29067;35.492;-97.520;2023-01-05T09:02:30;97941.72;;;-0.67;39.28
43480;BME280;29067;35.492;-97.520;2023-01-05T09:04:58;97942.58;;;-0.73;39.26
43480;BME280;29067;35.492;-97.520;2023-01-05T09:07:26;97948.01;;;-2.35;41.14
43480;BME280;29067;35.492;-97.520;2023-01-05T09:09:55;97947.16;;;-2.43;41.43
43480;BME280;29067;35.492;-97.520;2023-01-05T09:12:23;97946.49;;;-1.14;40.06
43480;BME280;29067;35.492;-97.520;2023-01-05T09:14:52;97944.34;;;-0.93;40.44
43480;BME280;29067;35.492;-97.520;2023-01-05T09:17:21;97952.42;;;-2.47;42.44
43480;BME280;29067;35.492;-97.520;2023-01-05T09:19:49;97950.42;;;-1.28;40.88
43480;BME280;29067;35.492;-97.520;2023-01-05T09:22:17;97941.65;;;-1.22;40.57
43480;BME280;29067;35.492;-97.520;2023-01-05T09:24:45;97940.17;;;-0.79;39.86
43480;BME280;29067;35.492;-97.520;2023-01-05T09:27:13;97947.11;;;-2.02;40.98
43480;BME280;29067;35.492;-97.520;2023-01-05T09:29:41;97943.09;;;-0.67;39.92
43480;BME280;29067;35.492;-97.520;2023-01-05T09:32:09;97942.11;;;-0.12;40.14
43480;BME280;29067;35.492;-97.520;2023-01-05T09:34:37;97948.76;;;-1.20;40.55
43480;BME280;29067;35.492;-97.520;2023-01-05T09:37:05;97949.21;;;-0.09;39.24
43480;BME280;29067;35.492;-97.520;2023-01-05T09:39:34;97948.09;;;-0.16;38.80
43480;BME280;29067;35.492;-97.520;2023-01-05T09:42:05;97955.37;;;-1.96;40.52
43480;BME280;29067;35.492;-97.520;2023-01-05T09:44:35;97950.57;;;-0.58;39.54
43480;BME280;29067;35.492;-97.520;2023-01-05T09:47:09;97949.07;;;-0.56;39.61
43480;BME280;29067;35.492;-97.520;2023-01-05T09:49:40;97946.53;;;-0.42;39.10
43480;BME280;29067;35.492;-97.520;2023-01-05T09:52:09;97945.58;;;-0.10;38.66
43480;BME280;29067;35.492;-97.520;2023-01-05T09:54:39;97946.82;;;0.04;38.70
43480;BME280;29067;35.492;-97.520;2023-01-05T09:57:14;97944.89;;;-0.16;38.56
43480;BME280;29067;35.492;-97.520;2023-01-05T09:59:45;97942.54;;;-0.31;38.04
43480;BME280;29067;35.492;-97.520;2023-01-05T10:02:22;97944.73;;;-0.18;38.71
43480;BME280;29067;35.492;-97.520;2023-01-05T10:04:52;97949.33;;;-1.17;39.49
43480;BME280;29067;35.492;-97.520;2023-01-05T10:07:29;97947.76;;;0.08;38.17
43480;BME280;29067;35.492;-97.520;2023-01-05T10:10:02;97954.92;;;-0.74;38.51
43480;BME280;29067;35.492;-97.520;2023-01-05T10:12:41;97957.86;;;-0.11;38.71
43480;BME280;29067;35.492;-97.520;2023-01-05T10:15:12;97962.66;;;-0.36;38.59
43480;BME280;29067;35.492;-97.520;2023-01-05T10:17:42;97958.03;;;-0.89;39.14
43480;BME280;29067;35.492;-97.520;2023-01-05T10:20:24;97958.35;;;-0.87;39.35
43480;BME280;29067;35.492;-97.520;2023-01-05T10:23:05;97955.33;;;-0.72;39.49
43480;BME280;29067;35.492;-97.520;2023-01-05T10:25:40;97940.02;;;-0.63;39.06
43480;BME280;29067;35.492;-97.520;2023-01-05T10:28:22;97936.63;;;-0.48;38.74
43480;BME280;29067;35.492;-97.520;2023-01-05T10:30:57;97926.98;;;-0.28;38.54
43480;BME280;29067;35.492;-97.520;2023-01-05T10:33:44;97928.08;;;-0.90;38.98
43480;BME280;29067;35.492;-97.520;2023-01-05T10:36:24;97931.28;;;-1.07;39.86
43480;BME280;29067;35.492;-97.520;2023-01-05T10:39:03;97937.03;;;-0.56;39.32
43480;BME280;29067;35.492;-97.520;2023-01-05T10:41:40;97937.46;;;-0.71;39.23
43480;BME280;29067;35.492;-97.520;2023-01-05T10:45:06;97942.72;;;-0.49;38.90
43480;BME280;29067;35.492;-97.520;2023-01-05T10:47:37;97941.71;;;-1.57;39.96
43480;BME280;29067;35.492;-97.520;2023-01-05T10:50:23;97941.69;;;-1.84;40.84
43480;BME280;29067;35.492;-97.520;2023-01-05T10:52:54;97938.85;;;-1.31;39.73
43480;BME280;29067;35.492;-97.520;2023-01-05T10:55:23;97946.92;;;-1.01;40.04
43480;BME280;29067;35.492;-97.520;2023-01-05T10:57:52;97942.06;;;-0.68;40.17
43480;BME280;29067;35.492;-97.520;2023-01-05T11:00:39;97944.13;;;-0.46;39.95
43480;BME280;29067;35.492;-97.520;2023-01-05T11:03:12;97945.05;;;-0.87;39.78
43480;BME280;29067;35.492;-97.520;2023-01-05T11:05:43;97947.69;;;-2.57;41.04
43480;BME280;29067;35.492;-97.520;2023-01-05T11:08:15;97951.32;;;-2.03;40.70
43480;BME280;29067;35.492;-97.520;2023-01-05T11:10:54;97949.63;;;-0.61;39.25
43480;BME280;29067;35.492;-97.520;2023-01-05T11:13:29;97954.51;;;-1.10;39.75
43480;BME280;29067;35.492;-97.520;2023-01-05T11:16:07;97955.89;;;-0.14;39.55
43480;BME280;29067;35.492;-97.520;2023-01-05T11:18:43;97955.51;;;-0.82;40.52
43480;BME280;29067;35.492;-97.520;2023-01-05T11:21:14;97953.68;;;-1.40;40.96
43480;BME280;29067;35.492;-97.520;2023-01-05T11:23:44;97954.87;;;-1.59;40.59
43480;BME280;29067;35.492;-97.520;2023-01-05T11:26:22;97953.39;;;-1.20;39.84
43480;BME280;29067;35.492;-97.520;2023-01-05T11:28:58;97952.96;;;-1.10;39.54
43480;BME280;29067;35.492;-97.520;2023-01-05T11:31:31;97954.54;;;-1.50;40.17
43480;BME280;29067;35.492;-97.520;2023-01-05T11:34:06;97953.97;;;-0.26;39.13
43480;BME280;29067;35.492;-97.520;2023-01-05T11:36:36;97957.25;;;-1.70;39.47
43480;BME280;29067;35.492;-97.520;2023-01-05T11:39:05;97967.71;;;-1.86;40.40
43480;BME280;29067;35.492;-97.520;2023-01-05T11:41:33;97971.27;;;-0.28;38.94
43480;BME280;29067;35.492;-97.520;2023-01-05T11:44:03;97974.27;;;-1.13;39.59
43480;BME280;29067;35.492;-97.520;2023-01-05T11:46:41;97979.71;;;-1.36;39.38
43480;BME280;29067;35.492;-97.520;2023-01-05T11:49:09;97980.06;;;-1.22;39.32
43480;BME280;29067;35.492;-97.520;2023-01-05T11:51:39;97984.95;;;-1.29;39.43
43480;BME280;29067;35.492;-97.520;2023-01-05T11:54:30;97985.35;;;-1.18;39.26
43480;BME280;29067;35.492;-97.520;2023-01-05T11:57:17;97986.13;;;-1.70;40.59
43480;BME280;29067;35.492;-97.520;2023-01-05T11:59:46;97987.35;;;-1.05;39.49
43480;BME280;29067;35.492;-97.520;2023-01-05T12:03:11;97998.13;;;-0.26;39.08
43480;BME280;29067;35.492;-97.520;2023-01-05T12:05:45;98009.38;;;-0.41;38.70
43480;BME280;29067;35.492;-97.520;2023-01-05T12:08:19;98022.50;;;-1.27;39.43
43480;BME280;29067;35.492;-97.520;2023-01-05T12:10:57;98026.00;;;-1.75;40.06
43480;BME280;29067;35.492;-97.520;2023-01-05T12:13:47;98022.92;;;-0.46;39.28
43480;BME280;29067;35.492;-97.520;2023-01-05T12:16:28;98021.94;;;-1.47;40.21
43480;BME280;29067;35.492;-97.520;2023-01-05T12:19:27;98025.19;;;-0.43;39.20
43480;BME280;29067;35.492;-97.520;2023-01-05T12:22:16;98031.13;;;-0.73;39.41
43480;BME280;29067;35.492;-97.520;2023-01-05T12:24:56;98033.75;;;-0.79;39.44
43480;BME280;29067;35.492;-97.520;2023-01-05T12:27:34;98034.03;;;-1.03;39.59
43480;BME280;29067;35.492;-97.520;2023-01-05T12:30:20;98042.35;;;-1.34;39.20
43480;BME280;29067;35.492;-97.520;2023-01-05T12:33:06;98042.21;;;-0.14;38.33
43480;BME280;29067;35.492;-97.520;2023-01-05T12:35:50;98038.24;;;-1.00;38.98
43480;BME280;29067;35.492;-97.520;2023-01-05T12:38:30;98042.02;;;-1.47;39.75
43480;BME280;29067;35.492;-97.520;2023-01-05T12:41:18;98036.75;;;-0.84;38.94
43480;BME280;29067;35.492;-97.520;2023-01-05T12:43:57;98034.07;;;-0.42;38.40
43480;BME280;29067;35.492;-97.520;2023-01-05T12:46:38;98043.18;;;-1.98;39.72
43480;BME280;29067;35.492;-97.520;2023-01-05T12:49:14;98043.28;;;-1.82;39.10
43480;BME280;29067;35.492;-97.520;2023-01-05T12:51:47;98045.28;;;-2.14;39.59
43480;BME280;29067;35.492;-97.520;2023-01-05T12:54:27;98044.73;;;-1.21;39.01
43480;BME280;29067;35.492;-97.520;2023-01-05T12:57:00;98042.87;;;-1.37;39.67
43480;BME280;29067;35.492;-97.520;2023-01-05T12:59:38;98047.13;;;-1.09;39.37
43480;BME280;29067;35.492;-97.520;2023-01-05T13:02:21;98045.83;;;-1.40;38.48
43480;BME280;29067;35.492;-97.520;2023-01-05T13:04:57;98047.42;;;-1.39;38.26
43480;BME280;29067;35.492;-97.520;2023-01-05T13:07:40;98052.83;;;-0.77;37.72
43480;BME280;29067;35.492;-97.520;2023-01-05T13:10:20;98056.87;;;-1.88;38.43
43480;BME280;29067;35.492;-97.520;2023-01-05T13:12:54;98058.19;;;-0.99;37.72